Time;durP1;ratioP1;P1;durP2;ratioP2;P2;SDS_P1;SDS_P2;PMS_P1;PMS_P2;Temp;Humidity;BMP_temperature;BMP_pressure;BME280_temperature;BME280_humidity;BME280_pressure;Samples;Min_cycle;Max_cycle;Signal;HPM_P1;HPM_P2
2022/06/29 00:01:59;;;;;;;20.17;12.73;;;;;;;37.18;46.17;101299.53;6188396;23;20458;-71
2022/06/29 00:04:25;;;;;;;28.03;12.70;;;;;;;36.82;46.33;101289.13;6188012;23;20478;-71
2022/06/29 00:06:52;;;;;;;26.93;11.97;;;;;;;36.94;45.87;101294.97;6188429;23;20391;-71
2022/06/29 00:09:18;;;;;;;22.23;10.70;;;;;;;37.11;45.94;101294.50;6188613;23;20443;-71
2022/06/29 00:11:44;;;;;;;34.63;12.40;;;;;;;36.64;46.87;101292.56;6188345;23;20470;-71
2022/06/29 00:14:10;;;;;;;29.33;12.27;;;;;;;37.03;46.38;101282.44;6188294;23;20379;-71
2022/06/29 00:16:36;;;;;;;19.30;9.90;;;;;;;37.03;46.23;101292.44;6188144;23;20403;-72
2022/06/29 00:19:02;;;;;;;21.53;10.00;;;;;;;36.83;46.38;101296.13;6214029;23;20360;-72
2022/06/29 00:21:28;;;;;;;32.57;12.50;;;;;;;36.85;46.52;101299.38;6187690;23;20387;-74
2022/06/29 00:23:55;;;;;;;21.80;12.87;;;;;;;36.99;46.30;101303.03;6163353;23;20431;-71
2022/06/29 00:26:21;;;;;;;32.70;11.67;;;;;;;37.15;45.78;101290.13;6188239;23;20387;-73
2022/06/29 00:28:47;;;;;;;20.13;11.90;;;;;;;37.23;45.29;101292.16;6215256;23;20452;-73
2022/06/29 00:31:13;;;;;;;22.30;12.63;;;;;;;37.04;46.04;101292.16;6188267;23;20410;-73
2022/06/29 00:33:39;;;;;;;20.03;10.90;;;;;;;37.17;46.02;101285.22;6188021;23;20380;-73
2022/06/29 00:36:05;;;;;;;31.07;14.13;;;;;;;37.30;45.42;101283.69;6187985;23;20375;-72
2022/06/29 00:38:31;;;;;;;24.70;11.50;;;;;;;37.19;46.25;101280.31;6215254;23;20364;-72
2022/06/29 00:40:58;;;;;;;20.83;12.77;;;;;;;37.26;45.92;101267.25;6214507;23;20414;-72
2022/06/29 00:43:24;;;;;;;20.70;11.30;;;;;;;37.27;45.83;101273.47;6188099;23;20431;-72
2022/06/29 00:45:51;;;;;;;24.97;13.13;;;;;;;37.32;46.11;101267.97;6140671;23;20470;-72
2022/06/29 00:48:17;;;;;;;35.73;14.40;;;;;;;37.06;45.96;101264.81;6189938;23;20784;-72
2022/06/29 00:50:46;;;;;;;18.83;13.13;;;;;;;37.20;45.97;101252.19;6189929;23;20504;-72
2022/06/29 00:53:16;;;;;;;20.03;11.83;;;;;;;37.28;45.14;101248.81;6141024;23;20847;-72
2022/06/29 00:55:45;;;;;;;22.20;11.33;;;;;;;36.93;45.51;101252.00;6190684;23;20356;-72
2022/06/29 00:58:11;;;;;;;31.10;15.07;;;;;;;36.89;45.45;101249.06;6164721;23;20382;-74
2022/06/29 01:00:38;;;;;;;17.07;11.20;;;;;;;37.03;45.50;101254.59;6190155;23;20383;-74
2022/06/29 01:03:04;;;;;;;20.00;10.87;;;;;;;36.95;45.31;101242.50;6216856;23;20407;-73
2022/06/29 01:05:31;;;;;;;20.30;11.77;;;;;;;36.79;46.03;101238.34;6216957;23;20386;-73
2022/06/29 01:07:58;;;;;;;28.13;12.23;;;;;;;37.00;45.82;101239.72;6189998;23;20405;-74
2022/06/29 01:10:24;;;;;;;31.93;13.13;;;;;;;37.15;45.39;101232.53;6189876;23;20376;-73
2022/06/29 01:12:51;;;;;;;35.83;12.50;;;;;;;37.30;45.00;101232.28;6217057;23;20363;-73
2022/06/29 01:15:18;;;;;;;36.30;13.07;;;;;;;37.17;45.72;101233.81;6189882;23;20425;-72
2022/06/29 01:17:45;;;;;;;19.73;11.80;;;;;;;37.38;44.97;101221.66;6189910;23;20846;-72
2022/06/29 01:20:14;;;;;;;24.97;12.30;;;;;;;37.34;45.24;101222.53;6189810;23;20459;-71
2022/06/29 01:22:41;;;;;;;22.20;11.50;;;;;;;37.37;44.86;101208.41;6189601;23;20430;-72
2022/06/29 01:25:08;;;;;;;16.13;9.40;;;;;;;37.18;45.29;101219.19;6189920;23;20390;-72
2022/06/29 01:27:34;;;;;;;26.23;9.53;;;;;;;37.06;45.93;101211.50;6216759;23;20414;-73
2022/06/29 01:30:00;;;;;;;28.10;12.30;;;;;;;37.16;45.73;101215.19;6189642;23;20367;-74
2022/06/29 01:32:26;;;;;;;19.97;10.20;;;;;;;37.26;44.58;101204.19;6189799;23;20379;-73
2022/06/29 01:34:53;;;;;;;19.60;11.07;;;;;;;37.16;45.00;101212.47;6189551;23;20383;-73
2022/06/29 01:37:19;;;;;;;18.93;12.33;;;;;;;36.98;44.97;101206.78;6189627;23;20379;-73
2022/06/29 01:39:45;;;;;;;21.60;13.90;;;;;;;37.08;45.09;101203.94;6189626;23;20383;-73
2022/06/29 01:42:11;;;;;;;30.20;12.87;;;;;;;37.20;44.62;101206.22;6189584;23;20375;-71
2022/06/29 01:44:38;;;;;;;19.10;11.20;;;;;;;37.17;44.38;101205.97;6189569;23;20427;-72
2022/06/29 01:47:04;;;;;;;23.50;13.13;;;;;;;37.29;44.72;101203.63;6189600;23;20376;-73
2022/06/29 01:49:30;;;;;;;36.67;13.90;;;;;;;37.38;44.38;101205.41;6189289;23;20446;-73
2022/06/29 01:51:57;;;;;;;19.50;8.40;;;;;;;37.47;44.33;101202.84;6216641;23;20675;-72
2022/06/29 01:54:23;;;;;;;20.73;10.47;;;;;;;37.60;44.02;101199.38;6189537;23;20934;-72
2022/06/29 01:56:49;;;;;;;23.70;12.23;;;;;;;37.52;44.20;101196.56;6189246;23;20913;-74
2022/06/29 01:59:15;;;;;;;18.57;11.10;;;;;;;37.60;44.25;101202.06;6189346;23;20391;-74
2022/06/29 02:01:41;;;;;;;22.67;11.50;;;;;;;37.56;43.99;101200.25;6189363;23;20743;-73
2022/06/29 02:04:08;;;;;;;22.00;10.57;;;;;;;37.56;43.88;101200.25;6189272;23;20907;-73
2022/06/29 02:06:34;;;;;;;28.90;12.77;;;;;;;37.47;44.46;101194.72;6189241;23;20930;-73
2022/06/29 02:09:00;;;;;;;28.77;11.50;;;;;;;37.57;44.52;101191.06;6216517;23;20363;-73
2022/06/29 02:11:26;;;;;;;26.53;12.80;;;;;;;37.55;44.69;101194.03;6164875;23;20387;-73
2022/06/29 02:13:52;;;;;;;27.93;14.77;;;;;;;37.63;44.38;101195.28;6216575;23;20403;-72
2022/06/29 02:16:19;;;;;;;27.07;14.70;;;;;;;37.54;44.72;101189.72;6189326;23;20386;-72
2022/06/29 02:18:45;;;;;;;26.43;13.47;;;;;;;37.61;44.40;101186.63;6189282;23;20387;-72
2022/06/29 02:21:11;;;;;;;34.10;11.63;;;;;;;37.45;44.62;101175.28;6189168;23;20426;-72
2022/06/29 02:23:37;;;;;;;27.77;12.73;;;;;;;37.51;44.72;101173.28;6189682;23;20542;-72
2022/06/29 02:26:04;;;;;;;21.10;11.70;;;;;;;37.43;44.61;101155.81;6189286;23;20386;-72
2022/06/29 02:28:30;;;;;;;21.43;11.33;;;;;;;37.43;44.41;101155.81;6189117;23;20407;-72
2022/06/29 02:36:25;;;;;;;14.77;10.00;;;;;;;37.52;44.47;101148.63;6215875;23;20922;-72
2022/06/29 02:38:51;;;;;;;27.30;13.37;;;;;;;37.56;44.19;101148.81;6188933;23;20466;-73
2022/06/29 02:41:17;;;;;;;28.23;13.43;;;;;;;37.58;44.04;101154.78;6189517;23;20367;-73
2022/06/29 02:43:45;;;;;;;37.23;12.40;;;;;;;37.50;44.21;101156.22;6188864;23;20439;-73
2022/06/29 02:46:11;;;;;;;23.13;10.17;;;;;;;37.33;44.67;101150.56;6189009;23;20963;-73
2022/06/29 02:48:37;;;;;;;20.73;11.13;;;;;;;37.41;44.59;101160.72;6188945;23;20747;-72
2022/06/29 02:51:04;;;;;;;27.23;13.10;;;;;;;37.47;44.42;101161.44;6188682;23;20435;-73
2022/06/29 02:53:30;;;;;;;23.63;11.53;;;;;;;37.46;44.28;101160.66;6189011;23;20372;-73
2022/06/29 02:55:57;;;;;;;23.43;12.97;;;;;;;37.49;44.63;101162.75;6188876;23;20409;-72
2022/06/29 02:58:23;;;;;;;26.73;13.93;;;;;;;37.67;44.05;101166.50;6188725;23;20855;-74
2022/06/29 03:00:49;;;;;;;40.77;15.07;;;;;;;37.50;44.10;101160.84;6216080;23;20372;-73
2022/06/29 03:03:15;;;;;;;18.83;10.37;;;;;;;37.50;44.27;101166.25;6215570;23;20411;-74
2022/06/29 03:05:41;;;;;;;23.33;10.47;;;;;;;37.52;43.89;101154.03;6216019;23;20363;-71
2022/06/29 03:08:08;;;;;;;22.73;11.60;;;;;;;37.50;44.16;101160.84;6188376;23;20446;-72
2022/06/29 03:10:34;;;;;;;22.30;12.93;;;;;;;37.51;44.48;101163.28;6188638;23;20731;-73
2022/06/29 03:13:00;;;;;;;19.90;10.37;;;;;;;37.44;44.55;101165.53;6188558;23;20379;-73
2022/06/29 03:15:26;;;;;;;20.17;9.40;;;;;;;37.48;44.43;101176.56;6188778;23;20447;-72
2022/06/29 03:17:55;;;;;;;20.97;10.80;;;;;;;37.51;44.71;101184.91;6188833;23;20383;-72
2022/06/29 03:20:23;;;;;;;22.27;11.53;;;;;;;37.51;44.75;101174.09;6215754;23;20383;-72
2022/06/29 03:22:49;;;;;;;18.17;11.90;;;;;;;37.42;44.82;101175.84;6188417;23;20462;-72
2022/06/29 03:25:18;;;;;;;23.40;11.77;;;;;;;37.36;45.13;101182.44;6188617;23;20470;-72
2022/06/29 03:27:44;;;;;;;17.70;10.40;;;;;;;37.20;44.99;101173.75;6188557;23;20387;-74
2022/06/29 03:30:11;;;;;;;13.40;9.40;;;;;;;37.32;44.87;101173.25;6215770;23;20355;-73
2022/06/29 03:32:37;;;;;;;23.43;10.97;;;;;;;37.29;44.89;101168.47;6188755;23;20404;-73
2022/06/29 03:35:05;;;;;;;22.17;11.90;;;;;;;37.40;44.86;101171.84;6188507;23;20383;-73
2022/06/29 03:37:31;;;;;;;21.60;11.73;;;;;;;37.34;45.11;101166.50;6215630;23;20360;-73
2022/06/29 03:39:57;;;;;;;32.77;11.63;;;;;;;37.34;44.83;101171.91;6215575;23;20355;-73
2022/06/29 03:42:23;;;;;;;15.27;10.07;;;;;;;37.41;44.88;101179.66;6188508;23;20403;-73
2022/06/29 03:44:49;;;;;;;19.37;11.13;;;;;;;37.48;44.85;101180.09;6188482;23;20451;-72
2022/06/29 03:47:16;;;;;;;22.90;10.77;;;;;;;37.60;44.22;101180.44;6215328;23;20368;-72
2022/06/29 03:49:42;;;;;;;18.03;11.40;;;;;;;37.36;44.88;101188.66;6215167;23;20752;-72
2022/06/29 03:52:08;;;;;;;19.70;10.43;;;;;;;37.41;44.46;101184.28;6188344;23;20387;-72
2022/06/29 03:54:34;;;;;;;39.50;16.77;;;;;;;37.33;44.63;101185.72;6188295;23;20422;-72
2022/06/29 03:57:00;;;;;;;25.80;11.93;;;;;;;37.35;44.76;101197.06;6188400;23;20885;-73
2022/06/29 03:59:27;;;;;;;33.57;14.50;;;;;;;37.32;45.05;101195.75;6188234;23;20458;-73
2022/06/29 04:01:53;;;;;;;17.43;9.80;;;;;;;37.35;44.75;101199.78;6188283;23;20399;-73
2022/06/29 04:04:19;;;;;;;29.50;12.70;;;;;;;37.40;44.61;101188.09;6187999;23;20781;-72
2022/06/29 04:06:45;;;;;;;25.73;12.40;;;;;;;37.46;44.42;101185.00;6188463;23;20457;-72
2022/06/29 04:09:11;;;;;;;21.03;13.07;;;;;;;37.54;44.28;101183.50;6188259;23;20386;-72
2022/06/29 04:11:51;;;;;;;21.40;12.83;;;;;;;37.51;44.67;101182.22;6188186;23;20419;-73
2022/06/29 04:14:19;;;;;;;21.33;12.07;;;;;;;37.63;44.71;101177.16;6215305;23;20684;-73
2022/06/29 04:16:46;;;;;;;40.20;14.37;;;;;;;37.57;44.63;101182.94;6188205;23;20514;-73
2022/06/29 04:19:12;;;;;;;16.67;10.33;;;;;;;37.57;44.43;101182.94;6188188;23;20390;-73
2022/06/29 04:21:39;;;;;;;21.17;10.90;;;;;;;37.57;44.11;101191.84;6188074;23;20411;-73
2022/06/29 04:24:05;;;;;;;23.00;11.70;;;;;;;37.65;44.29;101193.06;6215288;23;20876;-73
2022/06/29 04:26:32;;;;;;;18.20;10.90;;;;;;;37.50;44.86;101198.72;6188085;23;20449;-73
2022/06/29 04:28:58;;;;;;;18.33;11.30;;;;;;;37.57;44.76;101205.38;6163356;23;20387;-72
2022/06/29 04:31:24;;;;;;;27.03;11.90;;;;;;;37.59;44.93;101213.22;6188936;23;20383;-72
2022/06/29 04:33:51;;;;;;;22.23;12.13;;;;;;;37.45;44.53;101210.47;6188013;23;20394;-72
2022/06/29 04:36:17;;;;;;;22.10;13.20;;;;;;;37.40;45.18;101215.94;6188077;23;20387;-72
2022/06/29 04:38:43;;;;;;;30.77;12.93;;;;;;;37.35;44.76;101222.22;6215300;23;20360;-73
2022/06/29 04:41:09;;;;;;;32.33;12.77;;;;;;;37.40;44.67;101221.34;6187956;23;20407;-73
2022/06/29 04:43:35;;;;;;;24.50;11.67;;;;;;;37.56;44.78;101211.06;6215200;23;20469;-71
2022/06/29 04:46:19;;;;;;;21.80;11.37;;;;;;;37.44;44.96;101216.94;6188008;23;20391;-72
2022/06/29 04:48:50;;;;;;;28.90;12.20;;;;;;;37.38;44.98;101210.00;6187866;23;20391;-71
2022/06/29 04:51:16;;;;;;;28.77;11.77;;;;;;;37.24;45.59;101212.63;6188052;23;20442;-72
2022/06/29 04:53:47;;;;;;;24.40;11.83;;;;;;;37.24;45.88;101214.53;6163421;23;20724;-72
2022/06/29 04:56:14;;;;;;;37.37;14.10;;;;;;;37.19;45.31;101220.81;6187962;23;20387;-72
2022/06/29 04:58:41;;;;;;;22.50;12.70;;;;;;;37.34;45.26;101217.91;6163447;23;20407;-72
2022/06/29 05:01:07;;;;;;;24.37;13.57;;;;;;;37.41;45.18;101228.38;6215275;23;20363;-72
2022/06/29 05:03:33;;;;;;;34.43;14.67;;;;;;;37.35;45.09;101221.44;6163243;23;20427;-72
2022/06/29 05:06:00;;;;;;;24.37;12.30;;;;;;;37.33;45.06;101227.09;6163231;23;20408;-74
2022/06/29 05:08:26;;;;;;;21.20;13.33;;;;;;;37.35;45.20;101226.84;6188076;23;20387;-73
2022/06/29 05:10:52;;;;;;;23.93;13.50;;;;;;;37.23;45.54;101232.66;6187962;23;20473;-73
2022/06/29 05:13:18;;;;;;;20.80;13.90;;;;;;;37.24;45.49;101230.75;6215090;23;20805;-73
2022/06/29 05:15:44;;;;;;;23.43;12.63;;;;;;;37.23;45.03;101246.19;6187752;23;20387;-72
2022/06/29 05:18:11;;;;;;;31.83;13.50;;;;;;;37.25;45.73;101243.97;6187867;23;20381;-71
2022/06/29 05:20:37;;;;;;;23.13;12.90;;;;;;;37.24;44.98;101239.66;6187841;23;20387;-72
2022/06/29 05:23:04;;;;;;;21.83;11.47;;;;;;;37.21;45.35;101244.88;6187802;23;20505;-72
2022/06/29 05:25:31;;;;;;;30.03;13.10;;;;;;;37.27;45.03;101241.00;6214984;23;20375;-72
2022/06/29 05:27:58;;;;;;;17.00;12.23;;;;;;;37.26;44.92;101244.78;6187753;23;20379;-73
2022/06/29 05:30:24;;;;;;;30.27;15.70;;;;;;;37.22;45.15;101243.78;6188030;23;20768;-72
2022/06/29 05:32:51;;;;;;;22.73;13.07;;;;;;;37.21;45.67;101242.16;6189711;23;20879;-74
2022/06/29 05:35:17;;;;;;;24.50;13.93;;;;;;;37.15;45.61;101243.34;6189793;23;20895;-74
2022/06/29 05:37:44;;;;;;;25.73;13.30;;;;;;;36.88;45.67;101244.75;6187577;23;20371;-72
2022/06/29 05:40:10;;;;;;;31.70;14.37;;;;;;;36.80;46.24;101239.97;6189285;23;20864;-72
2022/06/29 05:42:36;;;;;;;27.33;14.17;;;;;;;36.91;46.29;101243.38;6189445;23;20392;-72
2022/06/29 05:45:03;;;;;;;28.43;15.60;;;;;;;36.89;46.28;101242.84;6189317;23;20498;-72
2022/06/29 05:47:29;;;;;;;22.90;12.67;;;;;;;36.96;46.19;101243.31;6189423;23;20399;-73
2022/06/29 05:49:57;;;;;;;23.70;12.80;;;;;;;37.05;45.80;101242.38;6216236;23;20533;-73
2022/06/29 05:52:24;;;;;;;23.43;14.10;;;;;;;37.17;45.78;101244.66;6189481;23;20396;-71
2022/06/29 05:54:50;;;;;;;25.33;12.50;;;;;;;37.12;45.82;101247.41;6189601;23;20371;-71
2022/06/29 05:57:17;;;;;;;27.00;16.20;;;;;;;37.16;45.56;101253.84;6189317;23;20379;-71
2022/06/29 05:59:43;;;;;;;22.27;12.87;;;;;;;37.06;45.87;101262.91;6189344;23;20722;-72
2022/06/29 06:02:09;;;;;;;19.50;12.80;;;;;;;36.98;45.80;101260.06;6189162;23;20910;-72
2022/06/29 06:04:36;;;;;;;17.27;11.43;;;;;;;37.13;45.67;101260.63;6188877;23;20419;-71
2022/06/29 06:07:03;;;;;;;17.47;12.23;;;;;;;37.21;46.02;101267.31;6189100;23;20384;-71
2022/06/29 06:09:29;;;;;;;22.77;11.00;;;;;;;37.34;45.35;101260.41;6189076;23;20463;-72
2022/06/29 06:11:55;;;;;;;15.67;10.50;;;;;;;37.32;45.35;101257.13;6189168;23;20721;-71
2022/06/29 06:14:22;;;;;;;28.70;12.23;;;;;;;37.31;45.30;101255.53;6188933;23;20459;-70
2022/06/29 06:16:48;;;;;;;19.70;13.27;;;;;;;37.42;45.44;101261.66;6215933;23;20443;-70
2022/06/29 17:57:30;;;;;;;27.33;14.83;;;;;;;37.04;45.80;101020.91;6028365;22;2519713;-75
2022/06/29 17:59:56;;;;;;;25.50;12.40;;;;;;;37.04;46.03;101027.13;6153332;23;20193;-75
2022/06/29 18:02:23;;;;;;;32.07;14.67;;;;;;;37.11;45.81;101019.41;6154388;23;20392;-74
2022/06/29 18:04:52;;;;;;;19.93;12.00;;;;;;;37.21;45.95;101015.75;6153525;23;20853;-74
2022/06/29 18:07:19;;;;;;;32.13;13.90;;;;;;;37.11;46.21;101026.72;6155279;23;20358;-74
2022/06/29 18:09:46;;;;;;;41.50;13.77;;;;;;;37.00;45.52;101020.69;6129391;23;20377;-74
2022/06/29 18:12:13;;;;;;;21.63;11.73;;;;;;;36.97;46.08;101006.97;6153286;23;20420;-73
2022/06/29 18:14:39;;;;;;;25.50;12.93;;;;;;;37.07;46.31;101013.00;6155423;23;20358;-74
2022/06/29 18:17:07;;;;;;;21.03;12.70;;;;;;;37.15;46.13;101010.72;6153377;23;20377;-74
2022/06/29 18:19:33;;;;;;;19.80;11.43;;;;;;;37.24;45.64;101015.13;6153366;23;20384;-74
2022/06/29 18:21:59;;;;;;;25.40;12.53;;;;;;;37.25;45.27;101018.66;6153797;23;20476;-74
2022/06/29 18:24:25;;;;;;;17.90;12.20;;;;;;;37.10;45.08;101025.94;6154762;23;20354;-73
2022/06/29 18:26:51;;;;;;;20.80;11.60;;;;;;;36.99;45.49;101024.50;6154942;23;20362;-73
2022/06/29 18:29:17;;;;;;;24.07;11.43;;;;;;;36.83;45.43;101026.63;6153403;23;20374;-74
2022/06/29 18:31:44;;;;;;;22.23;11.70;;;;;;;36.76;45.93;101042.38;6153194;23;20908;-75
2022/06/29 18:34:10;;;;;;;20.10;11.73;;;;;;;36.81;46.46;101028.81;6155824;23;20389;-73
2022/06/29 18:36:36;;;;;;;22.40;13.10;;;;;;;37.01;45.84;101033.09;6153283;23;20405;-73
2022/06/29 18:39:04;;;;;;;20.57;11.60;;;;;;;37.10;45.38;101033.25;6155245;23;20677;-74
2022/06/29 18:41:30;;;;;;;20.53;11.93;;;;;;;36.90;45.50;101033.59;6153324;23;20373;-74
2022/06/29 18:43:57;;;;;;;35.43;14.00;;;;;;;36.91;45.39;101044.09;6153254;23;20907;-73
2022/06/29 18:46:25;;;;;;;28.43;13.40;;;;;;;36.79;45.81;101054.53;6153265;23;20393;-73
2022/06/29 18:48:55;;;;;;;29.33;11.60;;;;;;;36.86;45.87;101063.88;6153155;23;20409;-73
2022/06/29 18:51:21;;;;;;;18.50;11.20;;;;;;;36.78;46.34;101055.63;6153165;23;20505;-74
2022/06/29 18:53:48;;;;;;;26.63;13.13;;;;;;;36.82;46.33;101073.66;6153223;23;20855;-72
2022/06/29 18:56:14;;;;;;;25.63;12.10;;;;;;;36.81;46.51;101080.16;6158836;23;20522;-73
2022/06/29 18:58:40;;;;;;;25.77;13.47;;;;;;;36.66;47.12;101085.81;6158255;23;20851;-73
2022/06/29 19:01:07;;;;;;;31.90;15.83;;;;;;;36.56;47.33;101096.75;6156753;23;20380;-73
2022/06/29 19:03:33;;;;;;;19.93;11.50;;;;;;;36.49;46.95;101099.00;6157538;23;20856;-72
2022/06/29 19:05:59;;;;;;;21.60;12.67;;;;;;;36.48;47.39;101103.59;6184761;23;20389;-74
2022/06/29 19:08:27;;;;;;;20.87;12.27;;;;;;;36.46;47.58;101105.81;6157563;23;20416;-73
2022/06/29 19:10:53;;;;;;;24.93;12.23;;;;;;;36.41;47.32;101110.47;6157808;23;20424;-73
2022/06/29 19:13:19;;;;;;;23.83;14.77;;;;;;;36.53;47.30;101118.97;6157726;23;20729;-72
2022/06/29 19:15:45;;;;;;;25.97;14.57;;;;;;;36.42;47.07;101117.47;6184275;23;20365;-73
2022/06/29 19:18:12;;;;;;;25.23;15.53;;;;;;;36.34;47.52;101116.19;6157696;23;20844;-73
2022/06/29 19:20:38;;;;;;;21.10;13.00;;;;;;;36.32;47.70;101124.56;6184372;23;20364;-72
2022/06/29 19:23:04;;;;;;;21.03;14.50;;;;;;;36.31;47.83;101128.38;6156330;23;20388;-75
2022/06/29 19:25:30;;;;;;;26.50;14.43;;;;;;;36.23;48.17;101129.00;6157830;23;20391;-75
2022/06/29 19:27:57;;;;;;;30.80;16.70;;;;;;;36.13;48.35;101126.41;6184422;23;20361;-72
2022/06/29 19:30:23;;;;;;;36.60;17.10;;;;;;;35.90;48.64;101136.06;6157839;23;20437;-73
2022/06/29 19:32:49;;;;;;;25.03;12.37;;;;;;;35.97;48.60;101133.06;6156777;23;20383;-72
2022/06/29 19:35:16;;;;;;;28.20;13.13;;;;;;;35.81;48.63;101129.69;6157992;23;20783;-73
2022/06/29 19:37:42;;;;;;;24.20;13.70;;;;;;;35.94;49.23;101131.75;6159202;23;20426;-72
2022/06/29 19:40:09;;;;;;;30.30;14.13;;;;;;;35.87;48.65;101133.97;6159953;23;20411;-73
2022/06/29 19:42:35;;;;;;;26.67;13.37;;;;;;;35.94;48.22;101133.66;6159360;23;20379;-73
2022/06/29 19:45:01;;;;;;;31.83;15.00;;;;;;;36.02;48.52;101125.72;6135250;23;20384;-73
2022/06/29 19:47:27;;;;;;;27.80;13.70;;;;;;;36.17;48.57;101132.84;6187183;23;20438;-73
2022/06/29 19:49:54;;;;;;;25.30;12.80;;;;;;;36.22;48.25;101130.09;6186146;23;20411;-72
2022/06/29 19:52:21;;;;;;;24.53;14.63;;;;;;;36.15;48.20;101145.81;6160171;23;20408;-73
2022/06/29 19:54:47;;;;;;;43.00;15.43;;;;;;;36.06;48.45;101153.75;6159710;23;20883;-73
2022/06/29 19:57:14;;;;;;;24.90;14.07;;;;;;;36.12;48.58;101142.91;6159696;23;20764;-73
2022/06/29 19:59:40;;;;;;;27.83;15.00;;;;;;;36.17;47.66;101145.56;6159859;23;20371;-73
2022/06/29 20:02:07;;;;;;;24.90;14.60;;;;;;;36.00;47.87;101146.00;6159757;23;20363;-72
2022/06/29 20:04:33;;;;;;;30.23;15.40;;;;;;;36.26;48.05;101141.91;6159825;23;20400;-73
2022/06/29 20:06:59;;;;;;;32.43;14.50;;;;;;;36.33;48.17;101141.56;6135217;23;20384;-73
2022/06/29 20:09:26;;;;;;;38.80;14.50;;;;;;;36.30;47.19;101150.28;6159518;23;20378;-72
2022/06/29 20:11:52;;;;;;;30.43;14.50;;;;;;;36.33;47.81;101149.69;6186142;23;20424;-73
2022/06/29 20:14:19;;;;;;;27.50;14.17;;;;;;;36.30;47.85;101151.06;6159634;23;20383;-73
2022/06/29 20:16:45;;;;;;;21.70;13.60;;;;;;;36.47;47.42;101147.13;6160303;23;20810;-72
2022/06/29 20:19:11;;;;;;;26.90;14.00;;;;;;;36.43;47.28;101154.19;6159545;23;20459;-73
2022/06/29 20:21:38;;;;;;;17.27;12.47;;;;;;;36.54;47.54;101161.09;6159609;23;20452;-73
2022/06/29 20:24:04;;;;;;;22.07;12.60;;;;;;;36.65;47.15;101159.88;6135153;23;20404;-73
2022/06/29 20:26:31;;;;;;;26.93;14.70;;;;;;;36.54;47.39;101166.50;6159439;23;20384;-73
2022/06/29 20:28:57;;;;;;;28.43;14.47;;;;;;;36.76;46.98;101158.63;6159451;23;20412;-73
2022/06/29 20:31:24;;;;;;;18.83;12.90;;;;;;;36.75;46.89;101167.03;6159461;23;20443;-73
2022/06/29 20:33:51;;;;;;;26.53;13.67;;;;;;;36.57;47.09;101166.72;6159782;23;20360;-73
2022/06/29 20:36:17;;;;;;;28.87;13.23;;;;;;;36.79;47.03;101159.97;6186145;23;20388;-73
2022/06/29 20:38:44;;;;;;;16.17;8.50;;;;;;;35.97;44.39;101185.19;6159945;23;20359;-72
2022/06/29 20:41:10;;;;;;;9.83;7.77;;;;;;;35.56;45.32;101192.78;6185716;23;20380;-73
2022/06/29 20:46:21;;;;;;;10.20;6.10;;;;;;;34.97;45.50;101189.09;6185812;23;20348;-73
2022/06/29 20:48:47;;;;;;;11.83;5.90;;;;;;;34.71;46.21;101188.38;6159271;23;20472;-72
2022/06/29 20:51:13;;;;;;;10.03;4.50;;;;;;;34.00;47.36;101179.63;6159008;23;20427;-73
2022/06/29 20:53:39;;;;;;;6.90;3.90;;;;;;;34.08;47.29;101184.50;6159285;23;20416;-73
2022/06/29 20:56:09;;;;;;;8.27;5.13;;;;;;;34.16;46.21;101184.72;6185365;23;20407;-73
2022/06/29 20:58:36;;;;;;;10.80;4.80;;;;;;;34.32;46.56;101187.41;6135295;23;20723;-73
2022/06/29 21:01:03;;;;;;;12.73;7.17;;;;;;;34.04;47.06;101191.50;6159095;23;20365;-72
2022/06/29 21:03:32;;;;;;;10.67;7.03;;;;;;;34.50;46.24;101177.94;6186080;23;20492;-72
2022/06/29 21:05:59;;;;;;;12.30;5.43;;;;;;;34.57;45.64;101173.09;6185912;23;20356;-73
2022/06/29 21:08:25;;;;;;;8.00;4.53;;;;;;;34.37;46.40;101161.25;6158861;23;20427;-72
2022/06/29 21:10:51;;;;;;;10.07;4.80;;;;;;;34.85;45.18;101156.22;6158828;23;20431;-72
2022/06/29 21:13:17;;;;;;;11.47;4.27;;;;;;;35.10;44.32;101149.13;6159082;23;20471;-73
2022/06/29 21:15:45;;;;;;;8.30;4.70;;;;;;;34.93;45.16;101155.69;6158502;23;20384;-72
2022/06/29 21:18:12;;;;;;;7.77;4.20;;;;;;;34.89;44.91;101148.41;6159070;23;20844;-75
2022/06/29 21:20:38;;;;;;;12.90;5.13;;;;;;;34.62;45.90;101151.50;6158680;23;20865;-76
2022/06/29 21:23:04;;;;;;;12.07;6.27;;;;;;;34.78;45.28;101142.25;6185938;23;20371;-76
2022/06/29 21:25:30;;;;;;;8.43;4.90;;;;;;;34.73;45.60;101144.97;6158731;23;20709;-73
2022/06/29 21:27:57;;;;;;;11.87;5.67;;;;;;;34.26;46.69;101150.81;6158253;23;20376;-76
2022/06/29 21:30:23;;;;;;;10.87;5.37;;;;;;;34.58;46.25;101153.16;6158784;23;20384;-74
2022/06/29 21:32:49;;;;;;;11.00;5.53;;;;;;;34.42;45.69;101147.78;6158192;23;20430;-74
2022/06/29 21:35:17;;;;;;;14.97;5.80;;;;;;;34.14;46.35;101140.34;6185503;23;20866;-76
2022/06/29 21:37:44;;;;;;;14.03;5.90;;;;;;;34.32;46.56;101150.50;6158524;23;20408;-73
2022/06/29 21:40:10;;;;;;;8.50;5.07;;;;;;;34.39;46.15;101155.59;6185135;23;20356;-74
2022/06/29 21:42:37;;;;;;;8.17;5.83;;;;;;;34.09;46.71;101159.97;6185391;23;20416;-74
2022/06/29 21:45:03;;;;;;;10.60;5.70;;;;;;;34.09;46.81;101156.50;6158620;23;20439;-74
2022/06/29 21:47:29;;;;;;;14.33;7.87;;;;;;;34.30;46.70;101158.03;6185392;23;20424;-74
2022/06/29 21:52:40;;;;;;;11.83;6.90;;;;;;;33.83;47.33;101166.47;6182924;23;20406;-78
2022/06/29 21:55:07;;;;;;;13.57;7.10;;;;;;;34.30;46.63;101166.13;6156600;23;20376;-78
2022/06/29 21:57:33;;;;;;;14.17;7.33;;;;;;;34.57;46.28;101171.19;6184062;23;20435;-78
2022/06/29 21:59:59;;;;;;;11.63;8.30;;;;;;;34.63;45.71;101175.47;6158066;23;20388;-76
2022/06/29 22:02:26;;;;;;;9.33;5.80;;;;;;;34.69;45.59;101182.47;6158578;23;20479;-76
2022/06/29 22:04:52;;;;;;;10.73;6.37;;;;;;;34.43;45.86;101178.22;6157270;23;20376;-78
2022/06/29 22:07:18;;;;;;;14.67;7.23;;;;;;;34.68;45.74;101188.09;6158003;23;20383;-76
2022/06/29 22:09:44;;;;;;;11.03;6.53;;;;;;;34.45;45.67;101193.06;6158513;23;20379;-77
2022/06/29 22:12:10;;;;;;;13.60;6.00;;;;;;;34.10;46.65;101193.91;6158724;23;20486;-76
2022/06/29 22:14:36;;;;;;;12.07;7.73;;;;;;;34.22;46.35;101201.69;6158554;23;20387;-76
2022/06/29 22:17:03;;;;;;;12.10;5.80;;;;;;;34.51;45.92;101196.53;6158483;23;20388;-76
2022/06/29 22:19:29;;;;;;;9.10;5.37;;;;;;;34.47;45.97;101195.47;6156844;23;20778;-76
2022/06/29 22:21:55;;;;;;;9.67;5.73;;;;;;;34.54;45.57;101200.56;6158481;23;20404;-76
2022/06/29 22:24:21;;;;;;;8.73;5.60;;;;;;;34.51;45.44;101191.16;6158468;23;20380;-76
2022/06/29 22:26:47;;;;;;;13.73;6.60;;;;;;;34.34;45.92;101202.19;6156809;23;20919;-77
2022/06/29 22:29:13;;;;;;;9.73;5.13;;;;;;;34.42;45.36;101201.66;6158408;23;20387;-76
2022/06/29 22:31:40;;;;;;;7.90;4.60;;;;;;;34.40;45.92;101205.69;6184952;23;20499;-76
2022/06/29 22:34:06;;;;;;;8.90;5.30;;;;;;;34.42;45.65;101207.06;6158575;23;20380;-77
2022/06/29 22:36:32;;;;;;;9.87;5.40;;;;;;;34.40;45.88;101206.50;6158325;23;20387;-76
2022/06/29 22:38:58;;;;;;;9.80;5.47;;;;;;;34.23;46.19;101211.38;6158289;23;20884;-76
2022/06/29 22:41:24;;;;;;;9.07;5.37;;;;;;;34.62;45.24;101205.38;6158384;23;20430;-76
2022/06/29 22:43:50;;;;;;;9.93;5.10;;;;;;;34.76;45.28;101206.41;6185189;23;20364;-74
2022/06/29 22:46:16;;;;;;;6.30;3.83;;;;;;;34.85;44.68;101212.81;6185008;23;20408;-74
2022/06/29 22:48:43;;;;;;;8.67;5.17;;;;;;;34.93;44.19;101208.81;6158309;23;20380;-77
2022/06/29 22:51:09;;;;;;;8.67;4.93;;;;;;;34.44;45.51;101225.66;6158038;23;20934;-76
2022/06/29 22:53:36;;;;;;;11.33;4.77;;;;;;;34.26;45.85;101216.22;6158348;23;20388;-76
2022/06/29 22:56:03;;;;;;;10.00;5.23;;;;;;;34.54;44.98;101203.25;6185102;23;20395;-77
2022/06/29 22:58:29;;;;;;;8.27;5.93;;;;;;;34.38;45.32;101208.66;6157932;23;20438;-76